createdAt,value
2018-07-22T00:00:06.250Z,26.5
2018-07-22T00:00:31.813Z,26.58
2018-07-22T00:00:57.393Z,26.59
2018-07-22T00:01:22.977Z,26.47
2018-07-22T00:01:48.557Z,26.5
2018-07-22T00:02:14.168Z,26.47
2018-07-22T00:02:39.753Z,26.5
2018-07-22T00:03:05.323Z,26.59
2018-07-22T00:03:30.923Z,26.52
2018-07-22T00:03:56.502Z,26.46
2018-07-22T00:04:22.093Z,26.52
2018-07-22T00:04:47.691Z,26.47
2018-07-22T00:05:13.269Z,26.5
2018-07-22T00:05:38.839Z,26.47
2018-07-22T00:06:04.418Z,26.46
2018-07-22T00:06:29.996Z,26.54
2018-07-22T00:06:55.565Z,26.52
2018-07-22T00:07:21.151Z,26.54
2018-07-22T00:07:46.726Z,26.54
2018-07-22T00:08:12.298Z,26.5
2018-07-22T00:08:37.871Z,26.5
2018-07-22T00:09:03.469Z,26.46
2018-07-22T00:09:29.063Z,26.5
2018-07-22T00:09:54.626Z,26.5
2018-07-22T00:10:20.203Z,26.44
2018-07-22T00:10:45.789Z,26.46
2018-07-22T00:11:11.362Z,26.47
2018-07-22T00:11:36.945Z,26.46
2018-07-22T00:12:02.521Z,26.47
2018-07-22T00:12:28.104Z,26.47
2018-07-22T00:12:53.693Z,26.49
2018-07-22T00:13:19.267Z,26.54
2018-07-22T00:13:44.851Z,26.47
2018-07-22T00:14:10.484Z,26.47
2018-07-22T00:14:36.014Z,26.47
2018-07-22T00:15:01.588Z,26.54
2018-07-22T00:15:27.165Z,26.49
2018-07-22T00:15:52.734Z,26.52
2018-07-22T00:16:18.311Z,26.54
2018-07-22T00:16:43.893Z,26.54
2018-07-22T00:17:09.481Z,26.5
2018-07-22T00:17:35.061Z,26.49
2018-07-22T00:18:00.635Z,26.52
2018-07-22T00:18:26.218Z,26.5
2018-07-22T00:18:51.784Z,26.49
2018-07-22T00:19:17.359Z,26.5
2018-07-22T00:19:42.931Z,26.47
2018-07-22T00:20:08.494Z,26.52
2018-07-22T00:20:34.072Z,26.47
2018-07-22T00:20:59.655Z,26.46
2018-07-22T00:21:25.231Z,26.52
2018-07-22T00:21:50.806Z,26.5
2018-07-22T00:22:16.387Z,26.49
2018-07-22T00:22:41.965Z,26.55
2018-07-22T00:23:07.537Z,26.47
2018-07-22T00:23:33.113Z,26.52
2018-07-22T00:23:58.699Z,26.57
2018-07-22T00:24:24.283Z,26.52
2018-07-22T00:24:49.849Z,26.55
2018-07-22T00:25:15.435Z,26.54
2018-07-22T00:25:41.034Z,26.54
2018-07-22T00:26:06.613Z,26.54
2018-07-22T00:26:32.191Z,26.47
2018-07-22T00:26:57.768Z,26.47
2018-07-22T00:27:23.363Z,26.54
2018-07-22T00:27:48.953Z,26.5
2018-07-22T00:28:14.517Z,26.52
2018-07-22T00:28:40.105Z,26.49
2018-07-22T00:29:05.703Z,26.47
2018-07-22T00:29:31.238Z,26.54
2018-07-22T00:29:56.831Z,26.5
2018-07-22T00:30:22.413Z,26.55
2018-07-22T00:30:48.011Z,26.54
2018-07-22T00:31:13.581Z,26.44
2018-07-22T00:31:39.160Z,26.52
2018-07-22T00:32:04.750Z,26.49
2018-07-22T00:32:30.327Z,26.47
2018-07-22T00:32:55.911Z,26.5
2018-07-22T00:33:21.483Z,26.52
2018-07-22T00:33:47.069Z,26.47
2018-07-22T00:34:12.641Z,26.49
2018-07-22T00:34:38.217Z,26.5
2018-07-22T00:35:03.779Z,26.49
2018-07-22T00:35:29.386Z,26.54
2018-07-22T00:35:54.959Z,26.54
2018-07-22T00:36:20.535Z,26.5
2018-07-22T00:36:46.110Z,26.5
2018-07-22T00:37:11.676Z,26.46
2018-07-22T00:37:37.277Z,26.5
2018-07-22T00:38:02.844Z,26.57
2018-07-22T00:38:28.430Z,26.5
2018-07-22T00:38:54.013Z,26.49
2018-07-22T00:39:19.589Z,26.55
2018-07-22T00:39:45.169Z,26.52
2018-07-22T00:40:10.758Z,26.5
2018-07-22T00:40:36.328Z,26.47
2018-07-22T00:41:01.904Z,26.5
2018-07-22T00:41:27.483Z,26.5
2018-07-22T00:41:53.065Z,26.49
2018-07-22T00:42:18.647Z,26.49
2018-07-22T00:42:44.218Z,26.47
2018-07-22T00:43:09.800Z,26.54
2018-07-22T00:43:35.377Z,26.49
2018-07-22T00:44:00.957Z,26.47
2018-07-22T00:44:26.533Z,26.52
2018-07-22T00:44:52.123Z,26.49
2018-07-22T00:45:17.710Z,26.5
2018-07-22T00:45:43.313Z,26.47
2018-07-22T00:46:08.899Z,26.54
2018-07-22T00:46:34.485Z,26.49
2018-07-22T00:47:00.076Z,26.49
2018-07-22T00:47:25.665Z,26.5
2018-07-22T00:47:51.254Z,26.54
2018-07-22T00:48:16.818Z,26.5
2018-07-22T00:48:42.401Z,26.49
2018-07-22T00:49:07.997Z,26.49
2018-07-22T00:49:33.563Z,26.49
2018-07-22T00:49:59.165Z,26.47
2018-07-22T00:50:24.739Z,26.5
2018-07-22T00:50:50.310Z,26.46
2018-07-22T00:51:15.883Z,26.46
2018-07-22T00:51:41.484Z,26.46
2018-07-22T00:52:07.055Z,26.46
2018-07-22T00:52:32.626Z,26.5
2018-07-22T00:52:58.196Z,26.49
2018-07-22T00:53:23.782Z,26.52
2018-07-22T00:53:49.342Z,26.49
2018-07-22T00:54:14.926Z,26.52
2018-07-22T00:54:40.497Z,26.5
2018-07-22T00:55:06.078Z,26.47
2018-07-22T00:55:31.665Z,26.47
2018-07-22T00:55:57.252Z,26.5
2018-07-22T00:56:22.829Z,26.52
2018-07-22T00:56:48.415Z,26.49
2018-07-22T00:57:13.996Z,26.54
2018-07-22T00:57:39.567Z,26.46
2018-07-22T00:58:05.149Z,26.54
2018-07-22T00:58:30.723Z,26.44
2018-07-22T00:58:56.297Z,26.52
2018-07-22T00:59:21.873Z,26.47
2018-07-22T00:59:47.465Z,26.52
2018-07-22T01:00:13.045Z,26.46
2018-07-22T01:00:38.587Z,26.49
2018-07-22T01:01:04.160Z,26.49
2018-07-22T01:01:29.731Z,26.49
2018-07-22T01:01:55.301Z,26.49
2018-07-22T01:02:20.867Z,26.43
2018-07-22T01:02:46.433Z,26.5
2018-07-22T01:03:12.013Z,26.44
2018-07-22T01:03:37.597Z,26.47
2018-07-22T01:04:03.175Z,26.46
2018-07-22T01:04:28.753Z,26.46
2018-07-22T01:04:54.325Z,26.5
2018-07-22T01:05:19.892Z,26.49
2018-07-22T01:05:45.494Z,26.49
2018-07-22T01:06:11.072Z,26.5
2018-07-22T01:06:36.642Z,26.49
2018-07-22T01:07:02.227Z,26.47
2018-07-22T01:07:27.804Z,26.47
2018-07-22T01:07:53.377Z,26.49
2018-07-22T01:08:18.955Z,26.5
2018-07-22T01:08:44.534Z,26.46
2018-07-22T01:09:10.105Z,26.49
2018-07-22T01:09:35.687Z,26.49
2018-07-22T01:10:01.268Z,26.5
2018-07-22T01:10:26.829Z,26.39
2018-07-22T01:10:52.400Z,26.52
2018-07-22T01:11:17.975Z,26.52
2018-07-22T01:11:43.570Z,26.43
2018-07-22T01:12:09.142Z,26.46
2018-07-22T01:12:34.730Z,26.49
2018-07-22T01:13:00.306Z,26.5
2018-07-22T01:13:25.884Z,26.47
2018-07-22T01:13:51.471Z,26.52
2018-07-22T01:14:17.053Z,26.46
2018-07-22T01:14:42.648Z,26.47
2018-07-22T01:15:08.210Z,26.52
2018-07-22T01:15:33.805Z,26.49
2018-07-22T01:15:59.367Z,26.46
2018-07-22T01:16:24.940Z,26.47
2018-07-22T01:16:50.522Z,26.49
2018-07-22T01:17:16.099Z,26.54
2018-07-22T01:17:41.677Z,26.5
2018-07-22T01:18:07.258Z,26.49
2018-07-22T01:18:32.828Z,26.5
2018-07-22T01:18:58.396Z,26.5
2018-07-22T01:19:23.967Z,26.5
2018-07-22T01:19:49.546Z,26.47
2018-07-22T01:20:15.122Z,26.47
2018-07-22T01:20:40.709Z,26.44
2018-07-22T01:21:06.275Z,26.49
2018-07-22T01:21:31.871Z,26.49
2018-07-22T01:21:57.438Z,26.49
2018-07-22T01:22:23.005Z,26.44
2018-07-22T01:22:48.578Z,26.54
2018-07-22T01:23:14.145Z,26.44
2018-07-22T01:23:39.715Z,26.54
2018-07-22T01:24:05.299Z,26.47
2018-07-22T01:24:30.874Z,26.47
2018-07-22T01:24:56.454Z,26.49
2018-07-22T01:25:22.028Z,26.42
2018-07-22T01:25:47.605Z,26.46
2018-07-22T01:26:13.175Z,26.5
2018-07-22T01:26:38.748Z,26.44
2018-07-22T01:27:04.320Z,26.49
2018-07-22T01:27:29.885Z,26.47
2018-07-22T01:27:55.479Z,26.5
2018-07-22T01:28:21.050Z,26.44
2018-07-22T01:28:46.636Z,26.47
2018-07-22T01:29:12.202Z,26.5
2018-07-22T01:29:37.777Z,26.49
2018-07-22T01:30:03.361Z,26.5
2018-07-22T01:30:28.938Z,26.49
2018-07-22T01:30:54.509Z,26.46
2018-07-22T01:31:20.099Z,26.46
2018-07-22T01:31:45.678Z,26.46
2018-07-22T01:32:11.264Z,26.43
2018-07-22T01:32:36.826Z,26.49
2018-07-22T01:33:02.410Z,26.55
2018-07-22T01:33:27.988Z,26.49
2018-07-22T01:33:53.562Z,26.47
2018-07-22T01:34:19.138Z,26.49
2018-07-22T01:34:44.716Z,26.5
2018-07-22T01:35:10.292Z,26.46
2018-07-22T01:35:35.887Z,26.46
2018-07-22T01:36:01.449Z,26.49
2018-07-22T01:36:27.028Z,26.46
2018-07-22T01:36:52.595Z,26.49
2018-07-22T01:37:18.170Z,26.5
2018-07-22T01:37:43.744Z,26.5
2018-07-22T01:38:09.325Z,26.46
2018-07-22T01:38:34.922Z,26.49
2018-07-22T01:39:00.502Z,26.46
2018-07-22T01:39:26.059Z,26.43
2018-07-22T01:39:51.662Z,26.44
2018-07-22T01:40:17.230Z,26.5
2018-07-22T01:40:42.819Z,26.46
2018-07-22T01:41:08.385Z,26.46
2018-07-22T01:41:33.975Z,26.47
2018-07-22T01:41:59.544Z,26.52
2018-07-22T01:42:25.114Z,26.46
2018-07-22T01:42:50.700Z,26.44
2018-07-22T01:43:16.309Z,26.47
2018-07-22T01:43:41.844Z,26.46
2018-07-22T01:44:07.416Z,26.46
2018-07-22T01:44:32.975Z,26.49
2018-07-22T01:44:58.557Z,26.46
2018-07-22T01:45:24.137Z,26.46
2018-07-22T01:45:49.702Z,26.43
2018-07-22T01:46:15.287Z,26.43
2018-07-22T01:46:40.865Z,26.5
2018-07-22T01:47:06.446Z,26.47
2018-07-22T01:47:32.023Z,26.47
2018-07-22T01:47:57.600Z,26.49
2018-07-22T01:48:23.172Z,26.5
2018-07-22T01:48:48.749Z,26.46
2018-07-22T01:49:14.324Z,26.42
2018-07-22T01:49:39.893Z,26.44
2018-07-22T01:50:05.469Z,26.43
2018-07-22T01:50:31.047Z,26.49
2018-07-22T01:50:56.624Z,26.47
2018-07-22T01:51:22.198Z,26.49
2018-07-22T01:51:47.762Z,26.43
2018-07-22T01:52:13.332Z,26.43
2018-07-22T01:52:38.898Z,26.42
2018-07-22T01:53:04.471Z,26.42
2018-07-22T01:53:30.047Z,26.46
2018-07-22T01:53:55.619Z,26.49
2018-07-22T01:54:21.196Z,26.46
2018-07-22T01:54:46.770Z,26.5
2018-07-22T01:55:12.346Z,26.49
2018-07-22T01:55:37.919Z,26.42
2018-07-22T01:56:03.496Z,26.47
2018-07-22T01:56:29.078Z,26.43
2018-07-22T01:56:54.673Z,26.39
2018-07-22T01:57:20.232Z,26.43
2018-07-22T01:57:45.806Z,26.46
2018-07-22T01:58:11.382Z,26.46
2018-07-22T01:58:36.946Z,26.46
2018-07-22T01:59:02.520Z,26.44
2018-07-22T01:59:28.102Z,26.44
2018-07-22T01:59:53.688Z,26.52
2018-07-22T02:00:19.253Z,26.49
2018-07-22T02:00:44.827Z,26.43
2018-07-22T02:01:10.405Z,26.5
2018-07-22T02:01:36.010Z,26.5
2018-07-22T02:02:01.572Z,26.43
2018-07-22T02:02:27.132Z,26.46
2018-07-22T02:02:52.703Z,26.54
2018-07-22T02:03:18.273Z,26.5
2018-07-22T02:03:43.842Z,26.49
2018-07-22T02:04:09.423Z,26.47
2018-07-22T02:04:34.993Z,26.5
2018-07-22T02:05:00.583Z,26.52
2018-07-22T02:05:26.164Z,26.44
2018-07-22T02:05:51.743Z,26.42
2018-07-22T02:06:17.316Z,26.43
2018-07-22T02:06:42.899Z,26.46
2018-07-22T02:07:08.488Z,26.52
2018-07-22T02:07:34.066Z,26.43
2018-07-22T02:07:59.658Z,26.47
2018-07-22T02:08:25.229Z,26.49
2018-07-22T02:08:50.812Z,26.44
2018-07-22T02:09:16.387Z,26.43
2018-07-22T02:09:41.974Z,26.43
2018-07-22T02:10:07.551Z,26.42
2018-07-22T02:10:33.120Z,26.43
2018-07-22T02:10:58.699Z,26.47
2018-07-22T02:11:24.288Z,26.44
2018-07-22T02:11:49.853Z,26.47
2018-07-22T02:12:15.444Z,26.52
2018-07-22T02:12:41.013Z,26.46
2018-07-22T02:13:06.584Z,26.49
2018-07-22T02:13:32.167Z,26.43
2018-07-22T02:13:57.744Z,26.47
2018-07-22T02:14:23.320Z,26.47
2018-07-22T02:14:48.883Z,26.49
2018-07-22T02:15:14.479Z,26.42
2018-07-22T02:15:40.059Z,26.49
2018-07-22T02:16:05.634Z,26.47
2018-07-22T02:16:31.213Z,26.42
2018-07-22T02:16:56.788Z,26.44
2018-07-22T02:17:22.347Z,26.4
2018-07-22T02:17:47.926Z,26.46
2018-07-22T02:18:13.483Z,26.46
2018-07-22T02:18:39.064Z,26.42
2018-07-22T02:19:04.655Z,26.52
2018-07-22T02:19:30.240Z,26.46
2018-07-22T02:19:55.816Z,26.5
2018-07-22T02:20:21.398Z,26.46
2018-07-22T02:20:47.031Z,26.42
2018-07-22T02:21:12.533Z,26.42
2018-07-22T02:21:38.112Z,26.5
2018-07-22T02:22:03.738Z,26.47
2018-07-22T02:22:29.254Z,26.44
2018-07-22T02:22:54.835Z,26.5
2018-07-22T02:23:20.410Z,26.47
2018-07-22T02:23:45.977Z,26.4
2018-07-22T02:24:11.548Z,26.44
2018-07-22T02:24:37.121Z,26.42
2018-07-22T02:25:02.690Z,26.49
2018-07-22T02:25:28.278Z,26.47
2018-07-22T02:25:53.858Z,26.44
2018-07-22T02:26:19.437Z,26.42
2018-07-22T02:26:45.013Z,26.42
2018-07-22T02:27:12.292Z,26.43
2018-07-22T02:27:37.870Z,26.49
2018-07-22T02:28:03.451Z,26.44
2018-07-22T02:28:29.006Z,26.42
2018-07-22T02:28:54.592Z,26.47
2018-07-22T02:29:20.171Z,26.43
2018-07-22T02:29:45.747Z,26.39
2018-07-22T02:30:11.324Z,26.42
2018-07-22T02:30:36.916Z,26.44
2018-07-22T02:31:02.482Z,26.49
2018-07-22T02:31:28.080Z,26.46
2018-07-22T02:31:53.657Z,26.47
2018-07-22T02:32:19.243Z,26.43
2018-07-22T02:32:44.824Z,26.44
2018-07-22T02:33:10.400Z,26.46
2018-07-22T02:33:35.976Z,26.42
2018-07-22T02:34:01.558Z,26.42
2018-07-22T02:34:27.131Z,26.46
2018-07-22T02:34:52.690Z,26.44
2018-07-22T02:35:18.267Z,26.44
2018-07-22T02:35:43.858Z,26.46
2018-07-22T02:36:09.424Z,26.43
2018-07-22T02:36:35.001Z,26.49
2018-07-22T02:37:00.578Z,26.43
2018-07-22T02:37:26.164Z,26.44
2018-07-22T02:37:51.746Z,26.4
2018-07-22T02:38:17.300Z,26.43
2018-07-22T02:38:42.873Z,26.47
2018-07-22T02:39:08.452Z,26.44
2018-07-22T02:39:34.036Z,26.42
2018-07-22T02:39:59.591Z,26.4
2018-07-22T02:40:25.165Z,26.5
2018-07-22T02:40:50.733Z,26.46
2018-07-22T02:41:16.316Z,26.39
2018-07-22T02:41:41.894Z,26.44
2018-07-22T02:42:07.470Z,26.46
2018-07-22T02:42:33.034Z,26.46
2018-07-22T02:42:58.615Z,26.47
2018-07-22T02:43:24.192Z,26.47
2018-07-22T02:43:49.753Z,26.49
2018-07-22T02:44:15.336Z,26.42
2018-07-22T02:44:40.916Z,26.42
2018-07-22T02:45:06.489Z,26.46
2018-07-22T02:45:32.066Z,26.43
2018-07-22T02:45:57.665Z,26.43
2018-07-22T02:46:23.238Z,26.42
2018-07-22T02:46:48.816Z,26.46
2018-07-22T02:47:14.398Z,26.47
2018-07-22T02:47:39.981Z,26.47
2018-07-22T02:48:05.546Z,26.43
2018-07-22T02:48:31.121Z,26.46
2018-07-22T02:48:56.707Z,26.44
2018-07-22T02:49:22.282Z,26.42
2018-07-22T02:49:47.852Z,26.46
2018-07-22T02:50:13.428Z,26.43
2018-07-22T02:50:38.988Z,26.32
2018-07-22T02:51:04.574Z,26.47
2018-07-22T02:51:30.194Z,26.4
2018-07-22T02:51:55.718Z,26.44
2018-07-22T02:52:21.284Z,26.46
2018-07-22T02:52:46.859Z,26.47
2018-07-22T02:53:12.438Z,26.47
2018-07-22T02:53:38.014Z,26.44
2018-07-22T02:54:03.590Z,26.43
2018-07-22T02:54:29.174Z,26.37
2018-07-22T02:54:54.740Z,26.4
2018-07-22T02:55:20.319Z,26.46
2018-07-22T02:55:45.878Z,26.46
2018-07-22T02:56:11.462Z,26.5
2018-07-22T02:56:37.033Z,26.44
2018-07-22T02:57:02.611Z,26.46
2018-07-22T02:57:28.178Z,26.4
2018-07-22T02:57:53.762Z,26.37
2018-07-22T02:58:19.324Z,26.43
2018-07-22T02:58:44.908Z,26.44
2018-07-22T02:59:10.475Z,26.35
2018-07-22T02:59:36.050Z,26.42
2018-07-22T03:00:01.632Z,26.46
2018-07-22T03:00:27.205Z,26.44
2018-07-22T03:00:52.776Z,26.39
2018-07-22T03:01:18.360Z,26.44
2018-07-22T03:01:43.930Z,26.37
2018-07-22T03:02:09.504Z,26.44
2018-07-22T03:02:35.082Z,26.37
2018-07-22T03:03:00.638Z,26.35
2018-07-22T03:03:26.303Z,26.4
2018-07-22T03:03:51.780Z,26.44
2018-07-22T03:04:17.360Z,26.47
2018-07-22T03:04:42.942Z,26.43
2018-07-22T03:05:08.518Z,26.42
2018-07-22T03:05:34.082Z,26.39
2018-07-22T03:05:59.662Z,26.42
2018-07-22T03:06:25.240Z,26.39
2018-07-22T03:06:50.817Z,26.42
2018-07-22T03:07:16.392Z,26.42
2018-07-22T03:07:41.966Z,26.44
2018-07-22T03:08:07.550Z,26.32
2018-07-22T03:08:33.119Z,26.42
2018-07-22T03:08:58.709Z,26.37
2018-07-22T03:09:24.268Z,26.39
2018-07-22T03:09:49.838Z,26.39
2018-07-22T03:10:15.412Z,26.39
2018-07-22T03:10:40.998Z,26.43
2018-07-22T03:11:06.584Z,26.43
2018-07-22T03:11:32.148Z,26.43
2018-07-22T03:11:57.732Z,26.44
2018-07-22T03:12:23.309Z,26.47
2018-07-22T03:12:48.889Z,26.44
2018-07-22T03:13:14.461Z,26.42
2018-07-22T03:13:40.040Z,26.42
2018-07-22T03:14:05.617Z,26.37
2018-07-22T03:14:31.202Z,26.46
2018-07-22T03:14:56.812Z,26.42
2018-07-22T03:15:22.348Z,26.43
2018-07-22T03:15:47.918Z,26.42
2018-07-22T03:16:13.500Z,26.4
2018-07-22T03:16:39.080Z,26.43
2018-07-22T03:17:04.663Z,26.39
2018-07-22T03:17:30.256Z,26.37
2018-07-22T03:17:55.814Z,26.42
2018-07-22T03:18:21.392Z,26.44
2018-07-22T03:18:46.968Z,26.4
2018-07-22T03:19:12.540Z,26.4
2018-07-22T03:19:38.119Z,26.44
2018-07-22T03:20:03.694Z,26.4
2018-07-22T03:20:29.272Z,26.44
2018-07-22T03:20:54.849Z,26.42
2018-07-22T03:21:20.414Z,26.37
2018-07-22T03:21:45.999Z,26.43
2018-07-22T03:22:11.556Z,26.39
2018-07-22T03:22:37.139Z,26.43
2018-07-22T03:23:02.723Z,26.44
2018-07-22T03:23:28.302Z,26.36
2018-07-22T03:23:53.870Z,26.37
2018-07-22T03:24:19.438Z,26.43
2018-07-22T03:24:45.010Z,26.4
2018-07-22T03:25:10.572Z,26.37
2018-07-22T03:25:36.161Z,26.4
2018-07-22T03:26:01.730Z,26.32
2018-07-22T03:26:27.305Z,26.43
2018-07-22T03:26:52.882Z,26.43
2018-07-22T03:27:18.438Z,26.47
2018-07-22T03:27:44.012Z,26.39
2018-07-22T03:28:09.580Z,26.43
2018-07-22T03:28:35.150Z,26.43
2018-07-22T03:29:00.728Z,26.35
2018-07-22T03:29:26.308Z,26.43
2018-07-22T03:29:51.896Z,26.42
2018-07-22T03:30:17.464Z,26.37
2018-07-22T03:30:43.035Z,26.35
2018-07-22T03:31:08.605Z,26.43
2018-07-22T03:31:34.186Z,26.4
2018-07-22T03:31:59.766Z,26.36
2018-07-22T03:32:25.342Z,26.42
2018-07-22T03:32:50.924Z,26.37
2018-07-22T03:33:16.484Z,26.42
2018-07-22T03:33:42.058Z,26.43
2018-07-22T03:34:07.624Z,26.4
2018-07-22T03:34:33.191Z,26.44
2018-07-22T03:34:58.768Z,26.43
2018-07-22T03:35:24.336Z,26.4
2018-07-22T03:35:49.906Z,26.4
2018-07-22T03:36:15.483Z,26.44
2018-07-22T03:36:41.060Z,26.35
2018-07-22T03:37:06.637Z,26.42
2018-07-22T03:37:32.200Z,26.39
2018-07-22T03:37:57.770Z,26.47
2018-07-22T03:38:23.340Z,26.44
2018-07-22T03:38:48.910Z,26.43
2018-07-22T03:39:14.484Z,26.42
2018-07-22T03:39:40.059Z,26.43
2018-07-22T03:40:05.641Z,26.37
2018-07-22T03:40:31.213Z,26.32
2018-07-22T03:40:56.804Z,26.43
2018-07-22T03:41:22.377Z,26.32
2018-07-22T03:41:47.941Z,26.42
2018-07-22T03:42:13.511Z,26.44
2018-07-22T03:42:39.087Z,26.4
2018-07-22T03:43:04.671Z,26.37
2018-07-22T03:43:30.260Z,26.35
2018-07-22T03:43:55.839Z,26.32
2018-07-22T03:44:21.390Z,26.37
2018-07-22T03:44:46.992Z,26.43
2018-07-22T03:45:12.564Z,26.44
2018-07-22T03:45:38.137Z,26.4
2018-07-22T03:46:03.716Z,26.39
2018-07-22T03:46:29.287Z,26.32
2018-07-22T03:46:54.861Z,26.43
2018-07-22T03:47:20.431Z,26.43
2018-07-22T03:47:46.011Z,26.46
2018-07-22T03:48:11.571Z,26.42
2018-07-22T03:48:37.136Z,26.42
2018-07-22T03:49:02.729Z,26.42
2018-07-22T03:49:28.322Z,26.44
2018-07-22T03:49:53.893Z,26.35
2018-07-22T03:50:19.466Z,26.4
2018-07-22T03:50:45.041Z,26.39
2018-07-22T03:51:10.620Z,26.32
2018-07-22T03:51:36.201Z,26.42
2018-07-22T03:52:01.778Z,26.35
2018-07-22T03:52:27.354Z,26.43
2018-07-22T03:52:52.918Z,26.43
2018-07-22T03:53:18.493Z,26.47
2018-07-22T03:53:44.071Z,26.39
2018-07-22T03:54:09.639Z,26.32
2018-07-22T03:54:35.204Z,26.4
2018-07-22T03:55:00.789Z,26.39
2018-07-22T03:55:26.379Z,26.4
2018-07-22T03:55:51.961Z,26.4
2018-07-22T03:56:17.542Z,26.36
2018-07-22T03:56:43.113Z,26.4
2018-07-22T03:57:08.685Z,26.4
2018-07-22T03:57:34.258Z,26.43
2018-07-22T03:57:59.828Z,26.42
2018-07-22T03:58:25.408Z,26.31
2018-07-22T03:58:50.975Z,26.42
2018-07-22T03:59:16.552Z,26.43
2018-07-22T03:59:42.130Z,26.36
2018-07-22T04:00:07.711Z,26.4
2018-07-22T04:00:33.290Z,26.42
2018-07-22T04:00:58.876Z,26.46
2018-07-22T04:01:24.463Z,26.35
2018-07-22T04:01:50.037Z,26.35
2018-07-22T04:02:15.619Z,26.42
2018-07-22T04:02:41.188Z,26.47
2018-07-22T04:03:06.771Z,26.35
2018-07-22T04:03:32.345Z,26.43
2018-07-22T04:03:57.920Z,26.43
2018-07-22T04:04:23.490Z,26.39
2018-07-22T04:04:49.078Z,26.42
2018-07-22T04:05:14.658Z,26.47
2018-07-22T04:05:40.230Z,26.47
2018-07-22T04:06:05.791Z,26.37
2018-07-22T04:06:31.369Z,26.43
2018-07-22T04:06:56.957Z,26.37
2018-07-22T04:07:22.526Z,26.43
2018-07-22T04:07:48.103Z,26.42
2018-07-22T04:08:13.670Z,26.4
2018-07-22T04:08:39.248Z,26.44
2018-07-22T04:09:04.815Z,26.39
2018-07-22T04:09:30.403Z,26.36
2018-07-22T04:09:55.978Z,26.37
2018-07-22T04:10:21.541Z,26.4
2018-07-22T04:10:47.120Z,26.44
2018-07-22T04:11:12.691Z,26.43
2018-07-22T04:11:38.259Z,26.43
2018-07-22T04:12:03.832Z,26.32
2018-07-22T04:12:29.400Z,26.4
2018-07-22T04:12:54.988Z,26.42
2018-07-22T04:13:20.562Z,26.37
2018-07-22T04:13:46.131Z,26.44
2018-07-22T04:14:11.713Z,26.35
2018-07-22T04:14:37.292Z,26.39
2018-07-22T04:15:02.871Z,26.37
2018-07-22T04:15:28.441Z,26.36
2018-07-22T04:15:54.017Z,26.44
2018-07-22T04:16:19.592Z,26.4
2018-07-22T04:16:45.163Z,26.4
2018-07-22T04:17:10.759Z,26.42
2018-07-22T04:17:36.337Z,26.37
2018-07-22T04:18:01.899Z,26.39
2018-07-22T04:18:27.478Z,26.36
2018-07-22T04:18:53.049Z,26.39
2018-07-22T04:19:18.617Z,26.42
2018-07-22T04:19:44.186Z,26.35
2018-07-22T04:20:09.773Z,26.36
2018-07-22T04:20:35.347Z,26.44
2018-07-22T04:21:00.923Z,26.37
2018-07-22T04:21:26.520Z,26.31
2018-07-22T04:21:52.085Z,26.43
2018-07-22T04:22:17.641Z,26.42
2018-07-22T04:22:43.207Z,26.44
2018-07-22T04:23:08.787Z,26.46
2018-07-22T04:23:34.358Z,26.42
2018-07-22T04:23:59.944Z,26.36
2018-07-22T04:24:25.520Z,26.43
2018-07-22T04:24:51.086Z,26.43
2018-07-22T04:25:16.668Z,26.35
2018-07-22T04:25:42.246Z,26.42
2018-07-22T04:26:07.828Z,26.39
2018-07-22T04:26:33.401Z,26.44
2018-07-22T04:26:58.985Z,26.4
2018-07-22T04:27:24.567Z,26.42
2018-07-22T04:27:50.138Z,26.4
2018-07-22T04:28:15.718Z,26.4
2018-07-22T04:28:41.288Z,26.4
2018-07-22T04:29:06.864Z,26.43
2018-07-22T04:29:32.441Z,26.42
2018-07-22T04:29:58.004Z,26.39
2018-07-22T04:30:23.570Z,26.37
2018-07-22T04:30:49.165Z,26.37
2018-07-22T04:31:14.738Z,26.36
2018-07-22T04:31:40.325Z,26.4
2018-07-22T04:32:05.895Z,26.42
2018-07-22T04:32:31.476Z,26.37
2018-07-22T04:32:57.071Z,26.4
2018-07-22T04:33:22.655Z,26.36
2018-07-22T04:33:48.211Z,26.44
2018-07-22T04:34:13.783Z,26.4
2018-07-22T04:34:39.360Z,26.43
2018-07-22T04:35:04.957Z,26.36
2018-07-22T04:35:30.528Z,26.4
2018-07-22T04:35:56.103Z,26.39
2018-07-22T04:36:21.692Z,26.39
2018-07-22T04:36:47.250Z,26.37
2018-07-22T04:37:12.818Z,26.4
2018-07-22T04:37:38.390Z,26.4
2018-07-22T04:38:03.970Z,26.36
2018-07-22T04:38:29.543Z,26.4
2018-07-22T04:38:55.117Z,26.4
2018-07-22T04:39:20.708Z,26.32
2018-07-22T04:39:46.288Z,26.37
2018-07-22T04:40:11.863Z,26.42
2018-07-22T04:40:37.434Z,26.46
2018-07-22T04:41:03.021Z,26.37
2018-07-22T04:41:28.587Z,26.4
2018-07-22T04:41:54.166Z,26.43
2018-07-22T04:42:19.738Z,26.35
2018-07-22T04:42:45.314Z,26.42
2018-07-22T04:43:10.884Z,26.44
2018-07-22T04:43:36.458Z,26.39
2018-07-22T04:44:02.038Z,26.37
2018-07-22T04:44:27.608Z,26.42
2018-07-22T04:44:53.158Z,26.37
2018-07-22T04:45:18.729Z,26.43
2018-07-22T04:45:44.317Z,26.4
2018-07-22T04:46:09.883Z,26.37
2018-07-22T04:46:35.465Z,26.42
2018-07-22T04:47:01.036Z,26.4
2018-07-22T04:47:26.614Z,26.43
2018-07-22T04:47:52.192Z,26.44
2018-07-22T04:48:17.753Z,26.39
2018-07-22T04:48:43.361Z,26.32
2018-07-22T04:49:08.936Z,26.43
2018-07-22T04:49:34.497Z,26.37
2018-07-22T04:50:00.076Z,26.42
2018-07-22T04:50:25.650Z,26.32
2018-07-22T04:50:51.226Z,26.42
2018-07-22T04:51:16.783Z,26.36
2018-07-22T04:51:42.364Z,26.37
2018-07-22T04:52:07.950Z,26.42
2018-07-22T04:52:33.528Z,26.36
2018-07-22T04:52:59.092Z,26.4
2018-07-22T04:53:24.716Z,26.43
2018-07-22T04:53:50.255Z,26.42
2018-07-22T04:54:15.824Z,26.32
2018-07-22T04:54:41.393Z,26.37
2018-07-22T04:55:06.972Z,26.4
2018-07-22T04:55:32.542Z,26.46
2018-07-22T04:55:58.124Z,26.37
2018-07-22T04:56:23.708Z,26.37
2018-07-22T04:56:49.263Z,26.44
2018-07-22T04:57:14.867Z,26.36
2018-07-22T04:57:40.442Z,26.37
2018-07-22T04:58:06.006Z,26.39
2018-07-22T04:58:31.578Z,26.39
2018-07-22T04:58:57.162Z,26.43
2018-07-22T04:59:22.736Z,26.4
2018-07-22T04:59:48.312Z,26.42
2018-07-22T05:00:13.868Z,26.37
2018-07-22T05:00:39.454Z,26.36
2018-07-22T05:01:05.026Z,26.32
2018-07-22T05:01:30.597Z,26.39
2018-07-22T05:01:56.158Z,26.37
2018-07-22T05:02:21.741Z,26.42
2018-07-22T05:02:47.320Z,26.44
2018-07-22T05:03:12.906Z,26.43
2018-07-22T05:03:38.480Z,26.36
2018-07-22T05:04:04.064Z,26.44
2018-07-22T05:04:29.645Z,26.43
2018-07-22T05:04:55.205Z,26.43
2018-07-22T05:05:20.781Z,26.35
2018-07-22T05:05:46.362Z,26.43
2018-07-22T05:06:11.953Z,26.4
2018-07-22T05:06:37.522Z,26.4
2018-07-22T05:07:03.086Z,26.42
2018-07-22T05:07:28.653Z,26.36
2018-07-22T05:07:54.219Z,26.4
2018-07-22T05:08:19.800Z,26.42
2018-07-22T05:08:45.370Z,26.35
2018-07-22T05:09:10.941Z,26.44
2018-07-22T05:09:36.514Z,26.37
2018-07-22T05:10:02.082Z,26.37
2018-07-22T05:10:27.646Z,26.42
2018-07-22T05:10:53.217Z,26.37
2018-07-22T05:11:18.789Z,26.43
2018-07-22T05:11:44.345Z,26.42
2018-07-22T05:12:09.937Z,26.42
2018-07-22T05:12:35.510Z,26.42
2018-07-22T05:13:01.090Z,26.42
2018-07-22T05:13:26.664Z,26.4
2018-07-22T05:13:52.234Z,26.44
2018-07-22T05:14:17.812Z,26.46
2018-07-22T05:14:43.380Z,26.43
2018-07-22T05:15:08.964Z,26.42
2018-07-22T05:15:34.540Z,26.35
2018-07-22T05:16:00.115Z,26.36
2018-07-22T05:16:25.696Z,26.37
2018-07-22T05:16:51.252Z,26.42
2018-07-22T05:17:16.837Z,26.37
2018-07-22T05:17:42.408Z,26.4
2018-07-22T05:18:07.974Z,26.4
2018-07-22T05:18:33.556Z,26.32
2018-07-22T05:18:59.129Z,26.39
2018-07-22T05:19:24.698Z,26.44
2018-07-22T05:19:50.290Z,26.4
2018-07-22T05:20:15.874Z,26.37
2018-07-22T05:20:41.466Z,26.4
2018-07-22T05:21:07.047Z,26.43
2018-07-22T05:21:32.617Z,26.37
2018-07-22T05:21:58.194Z,26.4
2018-07-22T05:22:23.776Z,26.46
2018-07-22T05:22:49.348Z,26.42
2018-07-22T05:23:14.926Z,26.42
2018-07-22T05:23:40.514Z,26.37
2018-07-22T05:24:06.093Z,26.37
2018-07-22T05:24:31.650Z,26.46
2018-07-22T05:24:57.226Z,26.44
2018-07-22T05:25:22.808Z,26.44
2018-07-22T05:25:48.376Z,26.42
2018-07-22T05:26:13.954Z,26.4
2018-07-22T05:26:39.522Z,26.42
2018-07-22T05:27:05.114Z,26.35
2018-07-22T05:27:30.698Z,26.42
2018-07-22T05:27:56.280Z,26.42
2018-07-22T05:28:21.918Z,26.36
2018-07-22T05:28:47.442Z,26.44
2018-07-22T05:29:13.026Z,26.42
2018-07-22T05:29:38.610Z,26.32
2018-07-22T05:30:04.184Z,26.42
2018-07-22T05:30:29.765Z,26.36
2018-07-22T05:30:55.336Z,26.36